createdAt,value
2022-12-08T00:01:06.232Z,22.50
2022-12-08T00:03:34.720Z,22.50
2022-12-08T00:06:03.472Z,22.45
2022-12-08T00:08:30.951Z,22.51
2022-12-08T00:10:58.390Z,22.39
2022-12-08T00:13:27.248Z,22.49
2022-12-08T00:16:00.376Z,22.49
2022-12-08T00:18:27.785Z,22.42
2022-12-08T00:20:55.830Z,22.42
2022-12-08T00:23:23.286Z,22.44
2022-12-08T00:25:50.981Z,22.44
2022-12-08T00:28:19.153Z,22.43
2022-12-08T00:30:48.205Z,22.45
2022-12-08T00:33:15.788Z,22.46
2022-12-08T00:35:43.507Z,22.46
2022-12-08T00:38:11.026Z,22.45
2022-12-08T00:40:38.571Z,22.51
2022-12-08T00:43:06.304Z,22.51
2022-12-08T00:45:34.350Z,22.55
2022-12-08T00:48:03.269Z,22.49
2022-12-08T00:50:31.172Z,22.58
2022-12-08T00:52:58.629Z,22.48
2022-12-08T00:55:26.149Z,22.40
2022-12-08T00:57:53.626Z,22.45
2022-12-08T01:00:21.581Z,22.48
2022-12-08T01:02:49.048Z,22.50
2022-12-08T01:05:20.370Z,22.48
2022-12-08T01:07:48.355Z,22.54
2022-12-08T01:10:16.643Z,22.42
2022-12-08T01:12:44.213Z,22.52
2022-12-08T01:15:12.065Z,22.42
2022-12-08T01:17:39.616Z,22.52
2022-12-08T01:20:08.215Z,22.53
2022-12-08T01:22:37.357Z,22.54
2022-12-08T01:25:05.564Z,22.53
2022-12-08T01:27:33.058Z,22.49
2022-12-08T01:30:00.626Z,22.47
2022-12-08T01:32:28.306Z,22.50
2022-12-08T01:34:55.801Z,22.46
2022-12-08T01:37:23.330Z,22.38
2022-12-08T01:39:52.357Z,22.49
2022-12-08T01:42:21.888Z,22.45
2022-12-08T01:45:00.739Z,22.43
2022-12-08T01:47:34.596Z,22.38
2022-12-08T01:50:03.234Z,22.48
2022-12-08T01:52:36.936Z,22.48
2022-12-08T01:55:11.153Z,22.50
2022-12-08T01:57:43.734Z,22.42
2022-12-08T02:00:15.426Z,22.50
2022-12-08T02:02:50.214Z,22.49
2022-12-08T02:05:21.078Z,22.47
2022-12-08T02:07:49.570Z,22.46
2022-12-08T02:10:21.321Z,22.46
2022-12-08T02:12:54.716Z,22.45
2022-12-08T02:15:31.652Z,22.47
2022-12-08T02:18:15.247Z,22.44
2022-12-08T02:20:51.065Z,22.44
2022-12-08T02:23:29.777Z,22.32
2022-12-08T02:26:33.626Z,22.41
2022-12-08T02:29:35.513Z,22.38
2022-12-08T02:32:22.698Z,22.27
2022-12-08T02:34:58.490Z,22.40
2022-12-08T02:37:32.312Z,22.48
2022-12-08T02:40:08.039Z,22.41
2022-12-08T02:42:40.221Z,22.33
2022-12-08T02:45:13.446Z,22.31
2022-12-08T02:47:41.914Z,22.37
2022-12-08T02:50:12.294Z,22.01
2022-12-08T02:52:43.021Z,22.06
2022-12-08T02:55:18.492Z,22.18
2022-12-08T02:58:08.242Z,22.18
2022-12-08T03:00:39.086Z,22.35
2022-12-08T03:03:14.953Z,22.27
2022-12-08T03:05:57.765Z,22.27
2022-12-08T03:08:33.340Z,22.25
2022-12-08T03:11:07.297Z,22.23
2022-12-08T03:13:40.716Z,22.33
2022-12-08T03:16:11.227Z,22.52
2022-12-08T03:18:44.293Z,22.45
2022-12-08T03:21:16.589Z,22.47
2022-12-08T03:23:46.664Z,22.46
2022-12-08T03:26:17.630Z,22.48
2022-12-08T03:28:47.165Z,22.51
2022-12-08T03:31:17.411Z,22.48
2022-12-08T03:33:49.337Z,22.42
2022-12-08T03:36:19.249Z,22.45
2022-12-08T03:38:50.587Z,22.50
2022-12-08T03:41:18.120Z,22.50
2022-12-08T03:43:46.510Z,22.53
2022-12-08T03:46:14.312Z,22.59
2022-12-08T03:48:42.093Z,22.51
2022-12-08T03:51:10.588Z,22.52
2022-12-08T03:53:40.117Z,22.47
2022-12-08T03:56:16.005Z,22.36
2022-12-08T03:58:44.077Z,22.43
2022-12-08T04:01:12.644Z,22.50
2022-12-08T04:03:40.893Z,22.35
2022-12-08T04:06:08.708Z,22.39
2022-12-08T04:08:36.239Z,22.52
2022-12-08T04:11:06.049Z,22.61
2022-12-08T04:13:33.545Z,22.58
2022-12-08T04:16:01.020Z,22.59
2022-12-08T04:18:28.758Z,22.58
2022-12-08T04:20:56.321Z,22.39
2022-12-08T04:23:23.951Z,22.55
2022-12-08T04:25:51.686Z,22.43
2022-12-08T04:28:20.914Z,22.43
2022-12-08T04:30:48.734Z,22.40
2022-12-08T04:33:16.494Z,21.20
2022-12-08T04:35:43.914Z,21.78
2022-12-08T04:38:11.541Z,22.06
2022-12-08T04:40:39.434Z,22.03
2022-12-08T04:43:07.036Z,22.09
2022-12-08T04:45:36.077Z,22.08
2022-12-08T04:48:03.945Z,22.08
2022-12-08T04:50:31.549Z,21.74
2022-12-08T04:52:59.024Z,22.14
2022-12-08T04:55:26.627Z,22.40
2022-12-08T04:57:54.091Z,22.23
2022-12-08T05:00:22.223Z,22.24
2022-12-08T05:02:51.359Z,22.08
2022-12-08T05:05:18.962Z,22.11
2022-12-08T05:07:46.806Z,22.09
2022-12-08T05:10:14.302Z,22.15
2022-12-08T05:12:42.406Z,22.29
2022-12-08T05:15:10.677Z,22.26
2022-12-08T05:17:38.229Z,22.25
2022-12-08T05:20:08.698Z,22.18
2022-12-08T05:22:36.182Z,22.34
2022-12-08T05:25:04.152Z,22.31
2022-12-08T05:27:31.677Z,22.37
2022-12-08T05:29:59.685Z,22.21
2022-12-08T05:32:27.502Z,22.35
2022-12-08T05:34:55.037Z,22.23
2022-12-08T05:37:24.041Z,22.34
2022-12-08T05:39:51.671Z,22.28
2022-12-08T05:42:24.392Z,22.25
2022-12-08T05:44:52.856Z,22.24
2022-12-08T05:47:20.440Z,22.33
2022-12-08T05:49:49.516Z,22.36
2022-12-08T05:52:17.092Z,21.92
2022-12-08T05:54:46.146Z,22.36
2022-12-08T05:57:13.695Z,22.36
2022-12-08T05:59:41.514Z,22.38
2022-12-08T06:02:09.322Z,22.27
2022-12-08T06:04:38.359Z,22.28
2022-12-08T06:07:07.448Z,22.29
2022-12-08T06:09:39.644Z,22.29
2022-12-08T06:12:09.866Z,22.32
2022-12-08T06:14:38.611Z,22.27
2022-12-08T06:17:06.216Z,22.31
2022-12-08T06:19:34.943Z,22.29
2022-12-08T06:22:02.760Z,22.24
2022-12-08T06:24:30.249Z,22.27
2022-12-08T06:26:58.006Z,22.27
2022-12-08T06:29:26.991Z,22.26
2022-12-08T06:31:54.450Z,22.33
2022-12-08T06:34:22.386Z,22.23
2022-12-08T06:36:49.930Z,22.28
2022-12-08T06:39:17.508Z,22.24
2022-12-08T06:41:45.561Z,22.16
2022-12-08T06:44:13.043Z,22.33
2022-12-08T06:46:41.918Z,22.33
2022-12-08T06:49:09.742Z,22.30
2022-12-08T06:51:37.765Z,22.38
2022-12-08T06:54:05.563Z,22.35
2022-12-08T06:56:33.578Z,22.38
2022-12-08T06:59:01.157Z,22.28
2022-12-08T07:01:28.747Z,22.29
2022-12-08T07:03:58.269Z,22.42
2022-12-08T07:06:26.312Z,22.28
2022-12-08T07:08:54.141Z,22.22
2022-12-08T07:11:22.889Z,22.17
2022-12-08T07:13:51.029Z,22.36
2022-12-08T07:16:19.008Z,22.39
2022-12-08T07:18:47.121Z,22.35
2022-12-08T07:21:17.484Z,22.02
2022-12-08T07:23:50.250Z,21.86
2022-12-08T07:26:21.640Z,22.18
2022-12-08T07:28:49.691Z,22.20
2022-12-08T07:31:19.544Z,22.11
2022-12-08T07:33:47.937Z,22.19
2022-12-08T07:36:17.334Z,22.24
2022-12-08T07:38:45.008Z,22.20
2022-12-08T07:41:13.962Z,22.28
2022-12-08T07:43:42.358Z,22.20
2022-12-08T07:46:12.483Z,22.35
2022-12-08T07:48:40.408Z,22.19
2022-12-08T07:51:08.481Z,22.26
2022-12-08T07:53:42.292Z,22.25
2022-12-08T07:56:11.145Z,22.18
2022-12-08T07:58:38.742Z,22.21
2022-12-08T08:01:06.941Z,22.24
2022-12-08T08:03:34.771Z,22.22
2022-12-08T08:06:06.120Z,22.33
2022-12-08T08:08:33.718Z,22.23
2022-12-08T08:11:15.786Z,22.26
2022-12-08T08:13:46.973Z,21.89
2022-12-08T08:16:14.894Z,22.28
2022-12-08T08:18:42.470Z,22.17
2022-12-08T08:21:43.358Z,22.09
2022-12-08T08:23:57.956Z,22.04
2022-12-08T08:26:26.886Z,22.18
2022-12-08T08:28:54.612Z,22.21
2022-12-08T08:31:25.497Z,22.13
2022-12-08T08:33:53.161Z,22.10
2022-12-08T08:36:20.946Z,22.11
2022-12-08T08:38:48.859Z,22.09
2022-12-08T08:41:17.075Z,22.08
2022-12-08T08:43:46.174Z,22.06
2022-12-08T08:46:14.064Z,22.14
2022-12-08T08:48:41.658Z,22.17
2022-12-08T08:51:11.017Z,22.18
2022-12-08T08:53:39.350Z,22.30
2022-12-08T08:56:09.517Z,22.14
2022-12-08T08:58:38.906Z,22.17
2022-12-08T09:01:08.834Z,22.17
2022-12-08T09:03:36.474Z,22.23
2022-12-08T09:06:05.649Z,22.24
2022-12-08T09:08:33.869Z,22.26
2022-12-08T09:11:01.662Z,22.33
2022-12-08T09:13:29.578Z,22.35
2022-12-08T09:15:57.205Z,22.33
2022-12-08T09:18:26.527Z,22.22
2022-12-08T09:20:54.330Z,22.22
2022-12-08T09:23:21.798Z,22.27
2022-12-08T09:25:49.487Z,22.29
2022-12-08T09:28:17.098Z,22.24
2022-12-08T09:30:45.096Z,22.16
2022-12-08T09:33:13.206Z,22.26
2022-12-08T09:35:42.049Z,22.22
2022-12-08T09:38:10.231Z,22.27
2022-12-08T09:40:48.671Z,22.28
2022-12-08T09:43:31.750Z,22.28
2022-12-08T09:46:00.028Z,22.15
2022-12-08T09:48:35.961Z,22.21
2022-12-08T09:51:05.700Z,22.23
2022-12-08T09:53:37.798Z,22.24
2022-12-08T09:56:12.929Z,22.28
2022-12-08T09:58:48.445Z,22.24
2022-12-08T10:01:17.206Z,22.30
2022-12-08T10:03:44.797Z,22.30
2022-12-08T10:06:22.022Z,22.29
2022-12-08T10:09:03.127Z,22.34
2022-12-08T10:11:37.606Z,22.29
2022-12-08T10:14:18.292Z,22.32
2022-12-08T10:16:50.305Z,22.25
2022-12-08T10:19:21.966Z,22.29
2022-12-08T10:21:53.653Z,21.59
2022-12-08T10:24:26.800Z,22.06
2022-12-08T10:26:55.436Z,22.10
2022-12-08T10:29:23.057Z,22.21
2022-12-08T10:31:50.994Z,22.23
2022-12-08T10:34:21.751Z,22.27
2022-12-08T10:36:53.567Z,22.23
2022-12-08T10:39:35.557Z,22.28
2022-12-08T10:42:08.516Z,22.28
2022-12-08T10:44:48.923Z,22.28
2022-12-08T10:47:17.073Z,22.30
2022-12-08T10:49:45.554Z,22.23
2022-12-08T10:52:24.732Z,22.26
2022-12-08T10:54:53.359Z,22.41
2022-12-08T10:57:22.839Z,22.39
2022-12-08T10:59:50.824Z,22.45
2022-12-08T11:02:20.894Z,22.47
2022-12-08T11:04:58.261Z,22.52
2022-12-08T11:07:28.515Z,22.48
2022-12-08T11:09:58.100Z,22.43
2022-12-08T11:12:29.784Z,22.41
2022-12-08T11:15:00.088Z,22.39
2022-12-08T11:17:29.409Z,22.42
2022-12-08T11:19:59.297Z,22.36
2022-12-08T11:22:32.381Z,22.43
2022-12-08T11:25:03.152Z,22.48
2022-12-08T11:27:34.036Z,22.47
2022-12-08T11:30:02.278Z,22.44
2022-12-08T11:32:30.487Z,22.40
2022-12-08T11:35:02.363Z,22.47
2022-12-08T11:37:37.811Z,22.40
2022-12-08T11:40:10.710Z,22.29
2022-12-08T11:42:50.336Z,22.44
2022-12-08T11:45:20.431Z,22.54
2022-12-08T11:47:56.251Z,22.44
2022-12-08T11:50:29.710Z,22.41
2022-12-08T11:53:00.207Z,22.41
2022-12-08T11:55:37.075Z,22.40
2022-12-08T11:58:16.815Z,22.42
2022-12-08T12:00:44.817Z,22.41
2022-12-08T12:03:25.459Z,22.47
2022-12-08T12:06:18.573Z,22.46
2022-12-08T12:09:11.997Z,22.34
2022-12-08T12:11:51.242Z,22.33
2022-12-08T12:14:34.799Z,22.36
2022-12-08T12:17:05.809Z,22.43
2022-12-08T12:19:38.398Z,22.44
2022-12-08T12:22:14.949Z,22.54
2022-12-08T12:24:46.848Z,22.57
2022-12-08T12:27:27.564Z,22.50
2022-12-08T12:29:58.991Z,22.57
2022-12-08T12:32:40.328Z,22.54
2022-12-08T12:35:16.081Z,22.53
2022-12-08T12:37:46.321Z,22.56
2022-12-08T12:40:21.351Z,22.54
2022-12-08T12:43:14.099Z,22.49
2022-12-08T12:45:42.285Z,22.57
2022-12-08T12:48:25.605Z,22.48
2022-12-08T12:50:53.688Z,22.31
2022-12-08T12:53:47.431Z,22.45
2022-12-08T12:56:50.228Z,22.49
2022-12-08T12:59:39.975Z,22.48
2022-12-08T13:02:22.841Z,22.46
2022-12-08T13:05:03.238Z,22.51
2022-12-08T13:07:34.577Z,22.52
2022-12-08T13:10:11.212Z,22.40
2022-12-08T13:12:38.910Z,22.43
2022-12-08T13:15:18.440Z,22.51
2022-12-08T13:17:48.898Z,22.37
2022-12-08T13:20:22.230Z,21.61
2022-12-08T13:23:02.966Z,21.86
2022-12-08T13:25:49.245Z,22.26
2022-12-08T13:28:26.890Z,22.26
2022-12-08T13:30:57.646Z,22.44
2022-12-08T13:33:29.240Z,22.44
2022-12-08T13:36:18.889Z,22.52
2022-12-08T13:38:47.633Z,22.58
2022-12-08T13:41:20.731Z,22.62
2022-12-08T13:44:24.832Z,22.62
2022-12-08T13:51:16.154Z,22.62
2022-12-08T13:58:24.956Z,22.55
2022-12-08T14:01:06.344Z,22.56
2022-12-08T14:04:11.644Z,22.53
2022-12-08T14:06:37.958Z,22.57
2022-12-08T14:09:11.074Z,22.51
2022-12-08T14:11:41.346Z,22.53
2022-12-08T14:14:27.263Z,22.51
2022-12-08T14:17:05.271Z,22.55
2022-12-08T14:19:36.322Z,22.57
2022-12-08T14:22:11.841Z,22.55
2022-12-08T14:24:39.988Z,22.49
2022-12-08T14:27:09.008Z,22.51
2022-12-08T14:29:45.940Z,22.54
2022-12-08T14:32:25.701Z,22.51
2022-12-08T14:34:57.500Z,22.49
2022-12-08T14:37:27.823Z,22.49
2022-12-08T14:40:00.344Z,22.46
2022-12-08T14:42:29.274Z,22.36
2022-12-08T14:45:00.640Z,22.41
2022-12-08T14:47:34.362Z,22.39
2022-12-08T14:50:25.203Z,22.39
2022-12-08T14:52:53.742Z,22.39
2022-12-08T14:55:21.713Z,22.33
2022-12-08T14:57:49.678Z,22.38
2022-12-08T15:00:21.479Z,22.31
2022-12-08T15:02:49.563Z,22.36
2022-12-08T15:05:21.240Z,22.37
2022-12-08T15:07:52.204Z,22.37
2022-12-08T15:10:24.372Z,22.38
2022-12-08T15:13:04.554Z,22.38
2022-12-08T15:15:45.570Z,21.91
2022-12-08T15:18:17.159Z,21.82
2022-12-08T15:20:51.114Z,22.17
2022-12-08T15:23:28.827Z,22.23
2022-12-08T15:25:58.496Z,22.21
2022-12-08T15:28:29.945Z,22.29
2022-12-08T15:30:59.549Z,22.38
2022-12-08T15:33:28.133Z,22.38
2022-12-08T15:35:57.532Z,22.43
2022-12-08T15:38:28.368Z,22.40
2022-12-08T15:40:57.177Z,22.41
2022-12-08T15:43:24.911Z,22.44
2022-12-08T15:46:01.157Z,22.45
2022-12-08T15:48:30.659Z,22.45
2022-12-08T15:51:00.293Z,22.43
2022-12-08T15:53:27.613Z,22.43
2022-12-08T15:56:26.399Z,22.51
2022-12-08T15:58:59.001Z,22.45
2022-12-08T16:01:27.061Z,22.39
2022-12-08T16:04:55.370Z,22.47
2022-12-08T16:09:36.577Z,22.41
2022-12-08T16:12:07.236Z,22.43
2022-12-08T16:17:23.999Z,22.44
2022-12-08T16:19:52.411Z,22.34
2022-12-08T16:25:20.926Z,22.36
2022-12-08T16:28:29.626Z,22.41
2022-12-08T16:30:39.119Z,22.38
2022-12-08T16:33:07.158Z,22.38
2022-12-08T16:35:34.938Z,22.44
2022-12-08T16:38:04.030Z,22.45
2022-12-08T16:40:31.713Z,22.49
2022-12-08T16:42:59.218Z,22.44
2022-12-08T16:45:30.040Z,22.45
2022-12-08T16:47:59.622Z,22.51
2022-12-08T16:50:29.184Z,22.47
2022-12-08T16:52:59.634Z,22.47
2022-12-08T16:55:28.638Z,22.44
2022-12-08T16:57:56.241Z,22.43
2022-12-08T17:00:26.135Z,22.41
2022-12-08T17:02:55.021Z,22.45
2022-12-08T17:05:24.571Z,22.44
2022-12-08T17:07:54.304Z,22.43
2022-12-08T17:10:25.150Z,22.37
2022-12-08T17:12:56.213Z,22.29
2022-12-08T17:15:25.692Z,22.23
2022-12-08T17:17:53.910Z,22.22
2022-12-08T17:20:24.621Z,22.17
2022-12-08T17:22:54.583Z,22.26
2022-12-08T17:25:22.398Z,22.21
2022-12-08T17:27:50.278Z,22.16
2022-12-08T17:30:21.018Z,22.28
2022-12-08T17:32:49.394Z,22.14
2022-12-08T17:35:17.221Z,22.18
2022-12-08T17:37:45.103Z,22.13
2022-12-08T17:40:13.145Z,22.15
2022-12-08T17:42:41.160Z,22.21
2022-12-08T17:45:09.944Z,22.19
2022-12-08T17:47:39.789Z,22.18
2022-12-08T17:50:09.082Z,22.09
2022-12-08T17:52:36.792Z,22.10
2022-12-08T17:55:04.994Z,22.11
2022-12-08T17:57:33.397Z,22.16
2022-12-08T18:00:01.530Z,22.15
2022-12-08T18:02:41.196Z,22.09
2022-12-08T18:05:09.526Z,22.13
2022-12-08T18:07:37.277Z,22.10
2022-12-08T18:10:06.531Z,22.04
2022-12-08T18:12:34.707Z,22.03
2022-12-08T18:15:03.070Z,22.10
2022-12-08T18:17:30.572Z,22.03
2022-12-08T18:19:59.510Z,22.02
2022-12-08T18:22:27.186Z,21.93
2022-12-08T18:24:54.806Z,21.95
2022-12-08T18:27:22.490Z,21.91
2022-12-08T18:29:50.293Z,21.97
2022-12-08T18:32:18.164Z,22.00
2022-12-08T18:34:45.825Z,21.92
2022-12-08T18:37:15.531Z,21.94
2022-12-08T18:39:42.737Z,21.95
2022-12-08T18:42:10.479Z,21.90
2022-12-08T18:44:38.590Z,22.03
2022-12-08T18:47:06.655Z,21.99
2022-12-08T18:49:34.269Z,21.87
2022-12-08T18:52:01.898Z,21.91
2022-12-08T18:54:57.806Z,21.99
2022-12-08T18:57:19.249Z,21.98
2022-12-08T18:59:46.788Z,21.97
2022-12-08T19:02:14.572Z,22.01
2022-12-08T19:04:42.449Z,21.94
2022-12-08T19:07:10.341Z,22.02
2022-12-08T19:09:39.773Z,22.01
2022-12-08T19:12:07.703Z,22.14
2022-12-08T19:14:35.673Z,22.00
2022-12-08T19:17:03.253Z,22.02
2022-12-08T19:19:30.810Z,22.08
2022-12-08T19:21:59.329Z,22.01
2022-12-08T19:24:27.681Z,22.09
2022-12-08T19:26:56.746Z,22.00
2022-12-08T19:29:24.547Z,22.00
2022-12-08T19:31:52.121Z,21.93
2022-12-08T19:34:19.629Z,22.02
2022-12-08T19:36:47.207Z,21.95
2022-12-08T19:39:17.406Z,21.97
2022-12-08T19:41:45.214Z,22.01
2022-12-08T19:44:20.728Z,22.02
2022-12-08T19:46:48.322Z,21.95
2022-12-08T19:49:15.922Z,22.09
2022-12-08T19:51:43.397Z,21.97
2022-12-08T19:54:10.870Z,22.04
2022-12-08T19:56:38.441Z,22.08
2022-12-08T19:59:05.944Z,22.01
2022-12-08T20:01:34.906Z,22.02
2022-12-08T20:04:02.766Z,22.01
2022-12-08T20:06:30.229Z,21.98
2022-12-08T20:08:57.701Z,22.02
2022-12-08T20:11:25.318Z,22.01
2022-12-08T20:13:52.803Z,21.93
2022-12-08T20:16:20.313Z,22.00
2022-12-08T20:18:49.307Z,21.94
2022-12-08T20:21:17.279Z,21.87
2022-12-08T20:23:45.069Z,21.90
2022-12-08T20:26:16.214Z,21.93
2022-12-08T20:28:44.237Z,21.87
2022-12-08T20:31:18.384Z,21.92
2022-12-08T20:33:46.086Z,21.87
2022-12-08T20:36:20.480Z,21.86
2022-12-08T20:38:49.894Z,21.82
2022-12-08T20:41:17.864Z,21.93
2022-12-08T20:43:46.633Z,21.94
2022-12-08T20:46:16.935Z,21.79
2022-12-08T20:48:45.028Z,21.78
2022-12-08T20:51:15.333Z,21.79
2022-12-08T20:53:43.063Z,21.89
2022-12-08T20:56:14.972Z,21.78
2022-12-08T20:58:42.876Z,21.78
2022-12-08T21:01:11.964Z,21.85
2022-12-08T21:03:40.493Z,21.76
2022-12-08T21:06:08.925Z,21.79
2022-12-08T21:08:39.145Z,21.82
2022-12-08T21:11:07.968Z,21.82
2022-12-08T21:13:37.308Z,21.76
2022-12-08T21:16:05.625Z,21.73
2022-12-08T21:18:39.171Z,21.68
2022-12-08T21:21:10.090Z,21.79
2022-12-08T21:23:39.713Z,21.76
2022-12-08T21:26:10.495Z,21.63
2022-12-08T21:28:38.210Z,21.68
2022-12-08T21:31:08.133Z,21.81
2022-12-08T21:33:36.288Z,21.84
2022-12-08T21:36:05.627Z,21.86
2022-12-08T21:38:33.063Z,21.92
2022-12-08T21:41:04.778Z,21.87
2022-12-08T21:43:32.819Z,21.83
2022-12-08T21:46:00.533Z,21.78
2022-12-08T21:48:28.623Z,21.81
2022-12-08T21:50:56.519Z,21.90
2022-12-08T21:53:23.968Z,21.89
2022-12-08T21:55:52.169Z,21.83
2022-12-08T21:58:21.267Z,21.88
2022-12-08T22:00:48.916Z,21.92
2022-12-08T22:03:16.584Z,21.88
2022-12-08T22:05:44.125Z,21.92
2022-12-08T22:08:11.645Z,21.87
2022-12-08T22:10:39.361Z,21.84
2022-12-08T22:13:06.892Z,21.88
2022-12-08T22:15:36.038Z,21.87
2022-12-08T22:18:04.237Z,21.81
2022-12-08T22:20:31.810Z,21.82
2022-12-08T22:22:59.354Z,21.87
2022-12-08T22:25:26.867Z,21.75
2022-12-08T22:27:54.410Z,21.77
2022-12-08T22:30:22.101Z,21.79
2022-12-08T22:32:51.628Z,21.73
2022-12-08T22:35:19.240Z,21.81
2022-12-08T22:37:48.256Z,21.88
2022-12-08T22:40:16.103Z,21.86
2022-12-08T22:42:43.555Z,21.87
2022-12-08T22:45:11.740Z,21.90
2022-12-08T22:47:39.179Z,21.84
2022-12-08T22:50:09.003Z,21.83
2022-12-08T22:52:36.827Z,21.74
2022-12-08T22:55:05.082Z,21.81
2022-12-08T22:57:32.862Z,21.67
2022-12-08T23:00:00.449Z,21.77
2022-12-08T23:02:27.922Z,21.73
2022-12-08T23:04:56.212Z,21.79
2022-12-08T23:07:25.682Z,21.72
2022-12-08T23:09:53.280Z,21.79
2022-12-08T23:12:20.882Z,21.73
2022-12-08T23:14:48.861Z,21.73
2022-12-08T23:17:16.571Z,21.72
2022-12-08T23:19:44.128Z,21.73
2022-12-08T23:22:11.672Z,21.72
2022-12-08T23:24:40.902Z,21.78
2022-12-08T23:27:08.365Z,21.73
2022-12-08T23:29:37.109Z,21.84
2022-12-08T23:32:05.569Z,21.70
2022-12-08T23:34:33.164Z,21.67
2022-12-08T23:37:01.291Z,21.64
2022-12-08T23:39:28.836Z,21.58
2022-12-08T23:41:57.932Z,21.57
2022-12-08T23:44:25.614Z,21.52
2022-12-08T23:46:53.294Z,21.58
2022-12-08T23:49:21.184Z,21.52
2022-12-08T23:51:49.010Z,21.49
2022-12-08T23:54:16.933Z,21.46
2022-12-08T23:56:44.485Z,21.42
2022-12-08T23:59:14.172Z,21.54
